sensor_id;sensor_type;location;lat;lon;timestamp;P1;durP1;ratioP1;P2;durP2;ratioP2
56537;SDS011;42435;53.292;6.000;2022-07-01T00:01:30;3.00;;;0.73;;
56537;SDS011;42435;53.292;6.000;2022-07-01T00:03:56;3.05;;;0.40;;
56537;SDS011;42435;53.292;6.000;2022-07-01T00:06:22;1.55;;;0.50;;
56537;SDS011;42435;53.292;6.000;2022-07-01T00:08:47;4.45;;;0.80;;
56537;SDS011;42435;53.292;6.000;2022-07-01T00:11:14;1.17;;;0.65;;
56537;SDS011;42435;53.292;6.000;2022-07-01T00:13:40;2.53;;;0.50;;
56537;SDS011;42435;53.292;6.000;2022-07-01T00:16:08;6.45;;;0.88;;
56537;SDS011;42435;53.292;6.000;2022-07-01T00:18:43;3.05;;;1.15;;
56537;SDS011;42435;53.292;6.000;2022-07-01T00:21:08;3.80;;;0.55;;
56537;SDS011;42435;53.292;6.000;2022-07-01T00:23:34;1.70;;;0.52;;
56537;SDS011;42435;53.292;6.000;2022-07-01T00:26:01;5.05;;;0.70;;
56537;SDS011;42435;53.292;6.000;2022-07-01T00:28:27;3.45;;;0.50;;
56537;SDS011;42435;53.292;6.000;2022-07-01T00:30:52;3.20;;;0.50;;
56537;SDS011;42435;53.292;6.000;2022-07-01T00:33:18;2.90;;;0.55;;
56537;SDS011;42435;53.292;6.000;2022-07-01T00:35:44;5.15;;;0.70;;
56537;SDS011;42435;53.292;6.000;2022-07-01T00:38:09;3.50;;;0.55;;
56537;SDS011;42435;53.292;6.000;2022-07-01T00:40:35;1.90;;;0.40;;
56537;SDS011;42435;53.292;6.000;2022-07-01T00:43:04;4.63;;;0.88;;
56537;SDS011;42435;53.292;6.000;2022-07-01T00:45:29;2.67;;;0.40;;
56537;SDS011;42435;53.292;6.000;2022-07-01T00:47:55;2.38;;;0.80;;
56537;SDS011;42435;53.292;6.000;2022-07-01T00:50:21;1.67;;;0.55;;
56537;SDS011;42435;53.292;6.000;2022-07-01T00:52:47;1.92;;;0.45;;
56537;SDS011;42435;53.292;6.000;2022-07-01T00:55:13;1.52;;;0.65;;
56537;SDS011;42435;53.292;6.000;2022-07-01T00:57:40;2.20;;;0.52;;
56537;SDS011;42435;53.292;6.000;2022-07-01T01:00:07;2.35;;;0.70;;
56537;SDS011;42435;53.292;6.000;2022-07-01T01:02:38;1.88;;;0.43;;
56537;SDS011;42435;53.292;6.000;2022-07-01T01:05:04;1.77;;;0.93;;
56537;SDS011;42435;53.292;6.000;2022-07-01T01:07:31;0.85;;;0.65;;
56537;SDS011;42435;53.292;6.000;2022-07-01T01:10:00;2.28;;;0.80;;
56537;SDS011;42435;53.292;6.000;2022-07-01T01:12:28;1.15;;;0.50;;
56537;SDS011;42435;53.292;6.000;2022-07-01T01:14:54;1.27;;;0.57;;
56537;SDS011;42435;53.292;6.000;2022-07-01T01:17:20;1.30;;;0.50;;
56537;SDS011;42435;53.292;6.000;2022-07-01T01:19:49;1.42;;;0.98;;
56537;SDS011;42435;53.292;6.000;2022-07-01T01:22:15;3.08;;;0.80;;
56537;SDS011;42435;53.292;6.000;2022-07-01T01:24:42;2.50;;;1.33;;
56537;SDS011;42435;53.292;6.000;2022-07-01T01:27:09;1.27;;;0.60;;
56537;SDS011;42435;53.292;6.000;2022-07-01T01:29:35;4.22;;;1.00;;
56537;SDS011;42435;53.292;6.000;2022-07-01T01:32:02;1.00;;;0.52;;
56537;SDS011;42435;53.292;6.000;2022-07-01T01:34:28;0.60;;;0.55;;
56537;SDS011;42435;53.292;6.000;2022-07-01T01:36:54;1.00;;;0.63;;
56537;SDS011;42435;53.292;6.000;2022-07-01T01:39:20;2.22;;;0.70;;
56537;SDS011;42435;53.292;6.000;2022-07-01T01:41:46;0.90;;;0.65;;
56537;SDS011;42435;53.292;6.000;2022-07-01T01:44:12;1.75;;;1.08;;
56537;SDS011;42435;53.292;6.000;2022-07-01T01:46:38;0.98;;;0.70;;
56537;SDS011;42435;53.292;6.000;2022-07-01T01:49:07;2.72;;;0.90;;
56537;SDS011;42435;53.292;6.000;2022-07-01T01:51:33;1.40;;;1.05;;
56537;SDS011;42435;53.292;6.000;2022-07-01T01:53:59;2.35;;;1.23;;
56537;SDS011;42435;53.292;6.000;2022-07-01T01:56:25;3.45;;;1.50;;
56537;SDS011;42435;53.292;6.000;2022-07-01T01:58:51;2.90;;;1.00;;
56537;SDS011;42435;53.292;6.000;2022-07-01T02:01:18;2.20;;;1.38;;
56537;SDS011;42435;53.292;6.000;2022-07-01T02:03:45;3.88;;;1.58;;
56537;SDS011;42435;53.292;6.000;2022-07-01T02:06:13;2.45;;;1.83;;
56537;SDS011;42435;53.292;6.000;2022-07-01T02:08:43;3.65;;;1.73;;
56537;SDS011;42435;53.292;6.000;2022-07-01T02:11:08;2.65;;;1.52;;
56537;SDS011;42435;53.292;6.000;2022-07-01T02:13:34;3.08;;;1.50;;
56537;SDS011;42435;53.292;6.000;2022-07-01T02:16:01;1.58;;;1.13;;
56537;SDS011;42435;53.292;6.000;2022-07-01T02:18:27;2.55;;;1.70;;
56537;SDS011;42435;53.292;6.000;2022-07-01T02:20:53;4.25;;;1.80;;
56537;SDS011;42435;53.292;6.000;2022-07-01T02:23:21;2.25;;;1.50;;
56537;SDS011;42435;53.292;6.000;2022-07-01T02:25:47;2.72;;;2.10;;
56537;SDS011;42435;53.292;6.000;2022-07-01T02:28:12;2.88;;;1.70;;
56537;SDS011;42435;53.292;6.000;2022-07-01T02:30:38;3.95;;;2.00;;
56537;SDS011;42435;53.292;6.000;2022-07-01T02:33:07;3.58;;;2.03;;
56537;SDS011;42435;53.292;6.000;2022-07-01T02:35:33;2.28;;;1.77;;
56537;SDS011;42435;53.292;6.000;2022-07-01T02:38:00;2.85;;;1.30;;
56537;SDS011;42435;53.292;6.000;2022-07-01T02:40:27;3.53;;;1.45;;
56537;SDS011;42435;53.292;6.000;2022-07-01T02:42:52;3.03;;;1.42;;
56537;SDS011;42435;53.292;6.000;2022-07-01T02:45:18;1.58;;;1.48;;
56537;SDS011;42435;53.292;6.000;2022-07-01T02:47:43;5.97;;;2.58;;
56537;SDS011;42435;53.292;6.000;2022-07-01T02:50:12;4.07;;;1.83;;
56537;SDS011;42435;53.292;6.000;2022-07-01T02:52:39;2.03;;;1.40;;
56537;SDS011;42435;53.292;6.000;2022-07-01T02:55:09;2.45;;;1.50;;
56537;SDS011;42435;53.292;6.000;2022-07-01T02:57:36;4.85;;;1.50;;
56537;SDS011;42435;53.292;6.000;2022-07-01T03:00:05;3.85;;;1.80;;
56537;SDS011;42435;53.292;6.000;2022-07-01T03:02:32;2.67;;;1.40;;
56537;SDS011;42435;53.292;6.000;2022-07-01T03:04:59;3.90;;;2.00;;
56537;SDS011;42435;53.292;6.000;2022-07-01T03:07:25;2.75;;;1.77;;
56537;SDS011;42435;53.292;6.000;2022-07-01T03:09:51;1.65;;;1.20;;
56537;SDS011;42435;53.292;6.000;2022-07-01T03:12:17;2.10;;;1.70;;
56537;SDS011;42435;53.292;6.000;2022-07-01T03:17:37;3.15;;;1.35;;
56537;SDS011;42435;53.292;6.000;2022-07-01T03:20:06;2.75;;;1.83;;
56537;SDS011;42435;53.292;6.000;2022-07-01T03:22:33;2.83;;;1.60;;
56537;SDS011;42435;53.292;6.000;2022-07-01T03:25:00;2.25;;;1.58;;
56537;SDS011;42435;53.292;6.000;2022-07-01T03:27:28;3.05;;;1.77;;
56537;SDS011;42435;53.292;6.000;2022-07-01T03:29:54;4.00;;;1.80;;
56537;SDS011;42435;53.292;6.000;2022-07-01T03:32:20;3.20;;;1.92;;
56537;SDS011;42435;53.292;6.000;2022-07-01T03:34:47;1.98;;;1.60;;
56537;SDS011;42435;53.292;6.000;2022-07-01T03:37:16;2.65;;;1.80;;
56537;SDS011;42435;53.292;6.000;2022-07-01T03:39:42;2.72;;;2.03;;
56537;SDS011;42435;53.292;6.000;2022-07-01T03:42:11;4.88;;;2.25;;
56537;SDS011;42435;53.292;6.000;2022-07-01T03:44:37;4.03;;;2.13;;
56537;SDS011;42435;53.292;6.000;2022-07-01T03:47:06;2.78;;;2.25;;
56537;SDS011;42435;53.292;6.000;2022-07-01T03:49:35;3.65;;;2.17;;
56537;SDS011;42435;53.292;6.000;2022-07-01T03:52:02;2.65;;;2.10;;
56537;SDS011;42435;53.292;6.000;2022-07-01T03:54:29;4.65;;;2.05;;
56537;SDS011;42435;53.292;6.000;2022-07-01T03:56:58;5.53;;;2.85;;
56537;SDS011;42435;53.292;6.000;2022-07-01T03:59:26;3.28;;;1.85;;
56537;SDS011;42435;53.292;6.000;2022-07-01T04:01:55;5.82;;;2.28;;
56537;SDS011;42435;53.292;6.000;2022-07-01T04:04:23;2.60;;;1.95;;
56537;SDS011;42435;53.292;6.000;2022-07-01T04:06:53;6.45;;;2.50;;
56537;SDS011;42435;53.292;6.000;2022-07-01T04:09:23;2.72;;;2.30;;
56537;SDS011;42435;53.292;6.000;2022-07-01T04:11:49;5.88;;;2.92;;
56537;SDS011;42435;53.292;6.000;2022-07-01T04:14:18;3.75;;;2.22;;
56537;SDS011;42435;53.292;6.000;2022-07-01T04:16:44;3.85;;;2.15;;
56537;SDS011;42435;53.292;6.000;2022-07-01T04:19:11;3.08;;;2.55;;
56537;SDS011;42435;53.292;6.000;2022-07-01T04:21:38;4.65;;;2.53;;
56537;SDS011;42435;53.292;6.000;2022-07-01T04:24:22;4.40;;;2.23;;
56537;SDS011;42435;53.292;6.000;2022-07-01T04:26:49;6.50;;;2.53;;
56537;SDS011;42435;53.292;6.000;2022-07-01T04:29:15;5.78;;;2.60;;
56537;SDS011;42435;53.292;6.000;2022-07-01T04:31:41;3.38;;;2.25;;
56537;SDS011;42435;53.292;6.000;2022-07-01T04:34:07;3.88;;;2.40;;
56537;SDS011;42435;53.292;6.000;2022-07-01T04:36:34;5.28;;;2.10;;
56537;SDS011;42435;53.292;6.000;2022-07-01T04:39:00;4.95;;;2.50;;
56537;SDS011;42435;53.292;6.000;2022-07-01T04:41:27;4.25;;;2.08;;
56537;SDS011;42435;53.292;6.000;2022-07-01T04:44:11;4.35;;;2.30;;
56537;SDS011;42435;53.292;6.000;2022-07-01T04:46:37;3.95;;;1.85;;
56537;SDS011;42435;53.292;6.000;2022-07-01T04:49:02;5.47;;;2.35;;
56537;SDS011;42435;53.292;6.000;2022-07-01T04:51:32;5.45;;;1.60;;
56537;SDS011;42435;53.292;6.000;2022-07-01T04:53:59;4.70;;;1.77;;
56537;SDS011;42435;53.292;6.000;2022-07-01T04:56:25;4.85;;;1.90;;
56537;SDS011;42435;53.292;6.000;2022-07-01T04:58:53;9.38;;;2.40;;
56537;SDS011;42435;53.292;6.000;2022-07-01T05:01:22;3.83;;;2.10;;
56537;SDS011;42435;53.292;6.000;2022-07-01T05:03:48;4.00;;;2.15;;
56537;SDS011;42435;53.292;6.000;2022-07-01T05:06:14;9.05;;;2.53;;
56537;SDS011;42435;53.292;6.000;2022-07-01T05:08:40;6.85;;;2.22;;
56537;SDS011;42435;53.292;6.000;2022-07-01T05:11:09;4.25;;;1.30;;
56537;SDS011;42435;53.292;6.000;2022-07-01T05:13:34;2.78;;;1.50;;
56537;SDS011;42435;53.292;6.000;2022-07-01T05:16:00;3.40;;;1.80;;
56537;SDS011;42435;53.292;6.000;2022-07-01T05:18:26;5.00;;;1.30;;
56537;SDS011;42435;53.292;6.000;2022-07-01T05:21:10;2.65;;;1.35;;
56537;SDS011;42435;53.292;6.000;2022-07-01T05:23:55;7.87;;;2.60;;
56537;SDS011;42435;53.292;6.000;2022-07-01T05:26:20;5.80;;;2.47;;
56537;SDS011;42435;53.292;6.000;2022-07-01T05:28:46;10.02;;;4.65;;
56537;SDS011;42435;53.292;6.000;2022-07-01T05:31:14;9.13;;;4.55;;
56537;SDS011;42435;53.292;6.000;2022-07-01T05:33:40;7.35;;;3.92;;
56537;SDS011;42435;53.292;6.000;2022-07-01T05:36:05;5.38;;;3.25;;
56537;SDS011;42435;53.292;6.000;2022-07-01T05:38:31;3.00;;;1.83;;
56537;SDS011;42435;53.292;6.000;2022-07-01T05:40:57;5.22;;;1.33;;
56537;SDS011;42435;53.292;6.000;2022-07-01T05:43:22;4.60;;;1.80;;
56537;SDS011;42435;53.292;6.000;2022-07-01T05:45:48;2.95;;;1.40;;
56537;SDS011;42435;53.292;6.000;2022-07-01T05:48:14;4.28;;;1.30;;
56537;SDS011;42435;53.292;6.000;2022-07-01T05:50:39;4.60;;;1.75;;
56537;SDS011;42435;53.292;6.000;2022-07-01T05:53:05;3.92;;;1.30;;
56537;SDS011;42435;53.292;6.000;2022-07-01T05:55:31;4.63;;;1.80;;
56537;SDS011;42435;53.292;6.000;2022-07-01T05:57:56;5.70;;;1.77;;
56537;SDS011;42435;53.292;6.000;2022-07-01T06:00:22;5.22;;;2.13;;
56537;SDS011;42435;53.292;6.000;2022-07-01T06:02:48;3.28;;;1.77;;
56537;SDS011;42435;53.292;6.000;2022-07-01T06:05:14;4.05;;;2.38;;
56537;SDS011;42435;53.292;6.000;2022-07-01T06:07:40;5.35;;;2.45;;
56537;SDS011;42435;53.292;6.000;2022-07-01T06:10:07;6.88;;;2.50;;
56537;SDS011;42435;53.292;6.000;2022-07-01T06:12:38;5.55;;;2.47;;
56537;SDS011;42435;53.292;6.000;2022-07-01T06:15:08;4.32;;;3.05;;
56537;SDS011;42435;53.292;6.000;2022-07-01T06:17:39;5.70;;;3.15;;
56537;SDS011;42435;53.292;6.000;2022-07-01T06:20:06;5.38;;;3.00;;
56537;SDS011;42435;53.292;6.000;2022-07-01T06:22:32;4.72;;;3.58;;
56537;SDS011;42435;53.292;6.000;2022-07-01T06:24:59;11.00;;;4.32;;
56537;SDS011;42435;53.292;6.000;2022-07-01T06:27:28;8.32;;;4.00;;
56537;SDS011;42435;53.292;6.000;2022-07-01T06:29:54;11.25;;;4.95;;
56537;SDS011;42435;53.292;6.000;2022-07-01T06:32:20;8.00;;;5.15;;
56537;SDS011;42435;53.292;6.000;2022-07-01T06:34:45;8.40;;;4.55;;
56537;SDS011;42435;53.292;6.000;2022-07-01T06:37:13;10.98;;;5.35;;
56537;SDS011;42435;53.292;6.000;2022-07-01T06:39:38;11.05;;;4.93;;
56537;SDS011;42435;53.292;6.000;2022-07-01T06:42:04;15.07;;;5.50;;
56537;SDS011;42435;53.292;6.000;2022-07-01T06:44:30;13.25;;;6.22;;
56537;SDS011;42435;53.292;6.000;2022-07-01T06:46:56;13.23;;;5.43;;
56537;SDS011;42435;53.292;6.000;2022-07-01T06:49:21;9.60;;;4.70;;
56537;SDS011;42435;53.292;6.000;2022-07-01T06:51:47;10.63;;;5.63;;
56537;SDS011;42435;53.292;6.000;2022-07-01T06:54:12;8.55;;;5.35;;
56537;SDS011;42435;53.292;6.000;2022-07-01T06:56:42;13.07;;;5.70;;
56537;SDS011;42435;53.292;6.000;2022-07-01T06:59:17;11.15;;;5.47;;
56537;SDS011;42435;53.292;6.000;2022-07-01T07:05:38;11.43;;;5.32;;
56537;SDS011;42435;53.292;6.000;2022-07-01T07:08:37;7.82;;;4.68;;
56537;SDS011;42435;53.292;6.000;2022-07-01T07:11:15;7.35;;;4.97;;
56537;SDS011;42435;53.292;6.000;2022-07-01T07:13:41;12.30;;;5.05;;
56537;SDS011;42435;53.292;6.000;2022-07-01T07:16:07;8.70;;;4.55;;
56537;SDS011;42435;53.292;6.000;2022-07-01T07:18:33;11.45;;;4.78;;
56537;SDS011;42435;53.292;6.000;2022-07-01T07:21:00;10.27;;;3.85;;
56537;SDS011;42435;53.292;6.000;2022-07-01T07:23:37;8.50;;;3.50;;
56537;SDS011;42435;53.292;6.000;2022-07-01T07:26:33;12.85;;;3.42;;
56537;SDS011;42435;53.292;6.000;2022-07-01T07:29:01;11.38;;;4.07;;
56537;SDS011;42435;53.292;6.000;2022-07-01T07:31:28;9.18;;;3.33;;
56537;SDS011;42435;53.292;6.000;2022-07-01T07:33:53;7.90;;;3.00;;
56537;SDS011;42435;53.292;6.000;2022-07-01T07:36:19;8.88;;;2.47;;
56537;SDS011;42435;53.292;6.000;2022-07-01T07:38:44;6.28;;;2.60;;
56537;SDS011;42435;53.292;6.000;2022-07-01T07:41:13;6.97;;;2.97;;
56537;SDS011;42435;53.292;6.000;2022-07-01T07:43:39;7.55;;;2.20;;
56537;SDS011;42435;53.292;6.000;2022-07-01T07:46:07;7.15;;;2.30;;
56537;SDS011;42435;53.292;6.000;2022-07-01T07:48:33;8.27;;;2.72;;
56537;SDS011;42435;53.292;6.000;2022-07-01T07:50:58;5.30;;;2.45;;
56537;SDS011;42435;53.292;6.000;2022-07-01T07:53:27;6.40;;;2.40;;
56537;SDS011;42435;53.292;6.000;2022-07-01T07:55:53;6.15;;;2.40;;
56537;SDS011;42435;53.292;6.000;2022-07-01T07:58:18;8.23;;;3.03;;
56537;SDS011;42435;53.292;6.000;2022-07-01T08:00:47;8.80;;;2.45;;
56537;SDS011;42435;53.292;6.000;2022-07-01T08:03:15;8.27;;;2.60;;
56537;SDS011;42435;53.292;6.000;2022-07-01T08:05:41;6.65;;;2.30;;
56537;SDS011;42435;53.292;6.000;2022-07-01T08:08:06;7.05;;;1.70;;
56537;SDS011;42435;53.292;6.000;2022-07-01T08:10:35;5.03;;;1.95;;
56537;SDS011;42435;53.292;6.000;2022-07-01T08:13:00;7.05;;;1.35;;
56537;SDS011;42435;53.292;6.000;2022-07-01T08:15:29;5.93;;;1.63;;
56537;SDS011;42435;53.292;6.000;2022-07-01T08:17:56;3.92;;;1.48;;
56537;SDS011;42435;53.292;6.000;2022-07-01T08:20:21;5.85;;;1.67;;
56537;SDS011;42435;53.292;6.000;2022-07-01T08:22:47;3.00;;;1.13;;
56537;SDS011;42435;53.292;6.000;2022-07-01T08:25:21;3.83;;;1.48;;
56537;SDS011;42435;53.292;6.000;2022-07-01T08:27:47;5.10;;;1.13;;
56537;SDS011;42435;53.292;6.000;2022-07-01T08:30:13;3.85;;;0.90;;
56537;SDS011;42435;53.292;6.000;2022-07-01T08:32:38;6.88;;;1.33;;
56537;SDS011;42435;53.292;6.000;2022-07-01T08:35:07;3.05;;;0.90;;
56537;SDS011;42435;53.292;6.000;2022-07-01T08:37:33;3.85;;;0.80;;
56537;SDS011;42435;53.292;6.000;2022-07-01T08:40:02;3.00;;;1.00;;
56537;SDS011;42435;53.292;6.000;2022-07-01T08:42:31;2.83;;;1.02;;
56537;SDS011;42435;53.292;6.000;2022-07-01T08:45:00;3.40;;;0.98;;
56537;SDS011;42435;53.292;6.000;2022-07-01T08:47:26;4.20;;;1.13;;
56537;SDS011;42435;53.292;6.000;2022-07-01T08:49:51;1.35;;;0.75;;
56537;SDS011;42435;53.292;6.000;2022-07-01T08:52:20;2.58;;;1.05;;
56537;SDS011;42435;53.292;6.000;2022-07-01T08:54:45;2.47;;;0.98;;
56537;SDS011;42435;53.292;6.000;2022-07-01T08:57:11;2.13;;;0.80;;
56537;SDS011;42435;53.292;6.000;2022-07-01T08:59:37;3.35;;;1.08;;
56537;SDS011;42435;53.292;6.000;2022-07-01T09:02:05;2.45;;;1.00;;
56537;SDS011;42435;53.292;6.000;2022-07-01T09:04:34;2.75;;;1.00;;
56537;SDS011;42435;53.292;6.000;2022-07-01T09:07:01;4.55;;;1.00;;
56537;SDS011;42435;53.292;6.000;2022-07-01T09:09:27;2.53;;;1.05;;
56537;SDS011;42435;53.292;6.000;2022-07-01T09:11:54;5.32;;;1.10;;
56537;SDS011;42435;53.292;6.000;2022-07-01T09:14:24;4.05;;;1.00;;
56537;SDS011;42435;53.292;6.000;2022-07-01T09:16:51;3.42;;;1.30;;
56537;SDS011;42435;53.292;6.000;2022-07-01T09:19:20;4.35;;;1.05;;
56537;SDS011;42435;53.292;6.000;2022-07-01T09:21:53;3.85;;;1.27;;
56537;SDS011;42435;53.292;6.000;2022-07-01T09:24:27;5.90;;;1.80;;
56537;SDS011;42435;53.292;6.000;2022-07-01T09:27:00;2.60;;;0.93;;
56537;SDS011;42435;53.292;6.000;2022-07-01T09:29:52;5.45;;;1.00;;
56537;SDS011;42435;53.292;6.000;2022-07-01T09:32:19;1.77;;;0.80;;
56537;SDS011;42435;53.292;6.000;2022-07-01T09:34:49;4.43;;;1.05;;
56537;SDS011;42435;53.292;6.000;2022-07-01T09:37:17;6.38;;;0.90;;
56537;SDS011;42435;53.292;6.000;2022-07-01T09:39:51;2.17;;;0.50;;
56537;SDS011;42435;53.292;6.000;2022-07-01T09:42:22;2.03;;;0.50;;
56537;SDS011;42435;53.292;6.000;2022-07-01T09:44:52;3.45;;;0.80;;
56537;SDS011;42435;53.292;6.000;2022-07-01T09:47:33;1.77;;;0.75;;
56537;SDS011;42435;53.292;6.000;2022-07-01T09:50:00;3.22;;;0.75;;
56537;SDS011;42435;53.292;6.000;2022-07-01T09:52:36;1.65;;;0.60;;
56537;SDS011;42435;53.292;6.000;2022-07-01T09:55:09;2.60;;;0.77;;
56537;SDS011;42435;53.292;6.000;2022-07-01T09:57:43;1.77;;;0.65;;
56537;SDS011;42435;53.292;6.000;2022-07-01T10:00:12;2.80;;;0.50;;
56537;SDS011;42435;53.292;6.000;2022-07-01T10:02:38;1.63;;;0.55;;
56537;SDS011;42435;53.292;6.000;2022-07-01T10:05:08;2.10;;;0.70;;
56537;SDS011;42435;53.292;6.000;2022-07-01T10:10:27;1.77;;;0.75;;
56537;SDS011;42435;53.292;6.000;2022-07-01T10:13:07;3.25;;;0.70;;
56537;SDS011;42435;53.292;6.000;2022-07-01T10:15:44;1.67;;;0.73;;
56537;SDS011;42435;53.292;6.000;2022-07-01T10:18:21;4.68;;;0.52;;
56537;SDS011;42435;53.292;6.000;2022-07-01T10:21:05;3.33;;;1.02;;
56537;SDS011;42435;53.292;6.000;2022-07-01T10:23:40;0.85;;;0.57;;
56537;SDS011;42435;53.292;6.000;2022-07-01T10:26:20;1.42;;;0.88;;
56537;SDS011;42435;53.292;6.000;2022-07-01T10:28:54;2.25;;;0.90;;
56537;SDS011;42435;53.292;6.000;2022-07-01T10:31:27;0.75;;;0.70;;
56537;SDS011;42435;53.292;6.000;2022-07-01T10:34:06;2.83;;;0.60;;
56537;SDS011;42435;53.292;6.000;2022-07-01T10:36:32;3.08;;;0.60;;
56537;SDS011;42435;53.292;6.000;2022-07-01T10:39:09;1.60;;;0.80;;
56537;SDS011;42435;53.292;6.000;2022-07-01T10:41:40;5.10;;;1.20;;
56537;SDS011;42435;53.292;6.000;2022-07-01T10:44:18;1.88;;;0.90;;
56537;SDS011;42435;53.292;6.000;2022-07-01T10:49:17;4.97;;;1.00;;
56537;SDS011;42435;53.292;6.000;2022-07-01T10:59:43;4.25;;;1.00;;
56537;SDS011;42435;53.292;6.000;2022-07-01T11:04:44;2.17;;;0.73;;
56537;SDS011;42435;53.292;6.000;2022-07-01T11:07:10;2.25;;;0.90;;
56537;SDS011;42435;53.292;6.000;2022-07-01T11:09:36;4.20;;;1.25;;
56537;SDS011;42435;53.292;6.000;2022-07-01T11:12:02;5.38;;;1.15;;
56537;SDS011;42435;53.292;6.000;2022-07-01T11:14:31;2.95;;;1.27;;
56537;SDS011;42435;53.292;6.000;2022-07-01T11:17:05;3.38;;;1.10;;
56537;SDS011;42435;53.292;6.000;2022-07-01T11:19:32;2.92;;;1.00;;
56537;SDS011;42435;53.292;6.000;2022-07-01T11:21:58;5.10;;;1.25;;
56537;SDS011;42435;53.292;6.000;2022-07-01T11:24:24;1.70;;;0.77;;
56537;SDS011;42435;53.292;6.000;2022-07-01T11:27:14;3.10;;;1.50;;
56537;SDS011;42435;53.292;6.000;2022-07-01T11:29:39;2.67;;;0.70;;
56537;SDS011;42435;53.292;6.000;2022-07-01T11:32:04;2.33;;;0.70;;
56537;SDS011;42435;53.292;6.000;2022-07-01T11:34:30;2.90;;;0.75;;
56537;SDS011;42435;53.292;6.000;2022-07-01T11:36:56;4.10;;;0.70;;
56537;SDS011;42435;53.292;6.000;2022-07-01T11:40:08;2.25;;;0.90;;
56537;SDS011;42435;53.292;6.000;2022-07-01T11:42:36;2.35;;;1.25;;
56537;SDS011;42435;53.292;6.000;2022-07-01T11:45:23;2.63;;;1.13;;
56537;SDS011;42435;53.292;6.000;2022-07-01T11:47:52;1.95;;;0.70;;
56537;SDS011;42435;53.292;6.000;2022-07-01T11:50:24;2.30;;;0.52;;
56537;SDS011;42435;53.292;6.000;2022-07-01T11:52:56;4.15;;;0.73;;
56537;SDS011;42435;53.292;6.000;2022-07-01T11:55:41;1.58;;;0.82;;
56537;SDS011;42435;53.292;6.000;2022-07-01T11:58:24;2.78;;;1.85;;
56537;SDS011;42435;53.292;6.000;2022-07-01T12:03:54;4.78;;;1.13;;
56537;SDS011;42435;53.292;6.000;2022-07-01T12:06:26;3.35;;;0.60;;
56537;SDS011;42435;53.292;6.000;2022-07-01T12:08:52;3.03;;;1.02;;
56537;SDS011;42435;53.292;6.000;2022-07-01T12:11:34;2.40;;;0.80;;
56537;SDS011;42435;53.292;6.000;2022-07-01T12:14:34;1.58;;;0.50;;
56537;SDS011;42435;53.292;6.000;2022-07-01T12:17:05;1.50;;;0.50;;
56537;SDS011;42435;53.292;6.000;2022-07-01T12:19:40;1.90;;;0.55;;
56537;SDS011;42435;53.292;6.000;2022-07-01T12:22:08;1.45;;;0.47;;
56537;SDS011;42435;53.292;6.000;2022-07-01T12:24:38;3.08;;;0.70;;
56537;SDS011;42435;53.292;6.000;2022-07-01T12:27:07;1.92;;;0.50;;
56537;SDS011;42435;53.292;6.000;2022-07-01T12:32:44;2.00;;;0.50;;
56537;SDS011;42435;53.292;6.000;2022-07-01T12:35:28;2.90;;;0.47;;
56537;SDS011;42435;53.292;6.000;2022-07-01T12:38:06;2.60;;;0.65;;
56537;SDS011;42435;53.292;6.000;2022-07-01T12:40:36;1.50;;;0.40;;
56537;SDS011;42435;53.292;6.000;2022-07-01T12:43:02;3.20;;;0.38;;
56537;SDS011;42435;53.292;6.000;2022-07-01T12:45:38;1.50;;;0.38;;
56537;SDS011;42435;53.292;6.000;2022-07-01T12:48:05;1.48;;;0.32;;
56537;SDS011;42435;53.292;6.000;2022-07-01T12:50:33;2.45;;;0.40;;
56537;SDS011;42435;53.292;6.000;2022-07-01T12:55:37;1.85;;;0.38;;
56537;SDS011;42435;53.292;6.000;2022-07-01T12:58:08;3.60;;;0.68;;
56537;SDS011;42435;53.292;6.000;2022-07-01T13:00:41;5.00;;;0.70;;
56537;SDS011;42435;53.292;6.000;2022-07-01T13:03:17;3.25;;;0.95;;
56537;SDS011;42435;53.292;6.000;2022-07-01T13:08:41;2.65;;;0.40;;
56537;SDS011;42435;53.292;6.000;2022-07-01T13:11:16;2.10;;;0.60;;
56537;SDS011;42435;53.292;6.000;2022-07-01T13:13:41;4.43;;;0.50;;
56537;SDS011;42435;53.292;6.000;2022-07-01T13:16:07;4.43;;;0.93;;
56537;SDS011;42435;53.292;6.000;2022-07-01T13:18:33;1.27;;;0.45;;
56537;SDS011;42435;53.292;6.000;2022-07-01T13:20:58;6.22;;;0.60;;
56537;SDS011;42435;53.292;6.000;2022-07-01T13:23:24;2.92;;;0.82;;
56537;SDS011;42435;53.292;6.000;2022-07-01T13:25:52;1.92;;;0.73;;
56537;SDS011;42435;53.292;6.000;2022-07-01T13:28:20;1.70;;;0.45;;
56537;SDS011;42435;53.292;6.000;2022-07-01T13:30:46;3.58;;;0.73;;
56537;SDS011;42435;53.292;6.000;2022-07-01T13:33:22;1.75;;;0.70;;
56537;SDS011;42435;53.292;6.000;2022-07-01T13:35:50;3.42;;;0.60;;
56537;SDS011;42435;53.292;6.000;2022-07-01T13:38:16;3.47;;;0.70;;
56537;SDS011;42435;53.292;6.000;2022-07-01T13:40:41;6.57;;;1.08;;
56537;SDS011;42435;53.292;6.000;2022-07-01T13:43:07;4.03;;;1.13;;
56537;SDS011;42435;53.292;6.000;2022-07-01T13:45:35;1.52;;;0.68;;
56537;SDS011;42435;53.292;6.000;2022-07-01T13:48:01;4.43;;;0.90;;
56537;SDS011;42435;53.292;6.000;2022-07-01T13:50:27;2.95;;;0.63;;
56537;SDS011;42435;53.292;6.000;2022-07-01T13:52:52;5.78;;;0.60;;
56537;SDS011;42435;53.292;6.000;2022-07-01T13:55:21;2.63;;;0.80;;
56537;SDS011;42435;53.292;6.000;2022-07-01T13:57:46;2.75;;;0.73;;
56537;SDS011;42435;53.292;6.000;2022-07-01T14:00:13;4.18;;;1.00;;
56537;SDS011;42435;53.292;6.000;2022-07-01T14:02:39;5.28;;;1.17;;
56537;SDS011;42435;53.292;6.000;2022-07-01T14:05:15;2.17;;;0.70;;
56537;SDS011;42435;53.292;6.000;2022-07-01T14:07:46;3.05;;;0.60;;
56537;SDS011;42435;53.292;6.000;2022-07-01T14:10:15;2.38;;;0.90;;
56537;SDS011;42435;53.292;6.000;2022-07-01T14:13:05;2.47;;;0.70;;
56537;SDS011;42435;53.292;6.000;2022-07-01T14:15:36;3.13;;;0.60;;
56537;SDS011;42435;53.292;6.000;2022-07-01T14:18:08;1.77;;;0.70;;
56537;SDS011;42435;53.292;6.000;2022-07-01T14:20:37;3.53;;;1.00;;
56537;SDS011;42435;53.292;6.000;2022-07-01T14:23:19;1.80;;;1.00;;
56537;SDS011;42435;53.292;6.000;2022-07-01T14:25:45;3.15;;;0.70;;
56537;SDS011;42435;53.292;6.000;2022-07-01T14:28:14;2.33;;;0.70;;
56537;SDS011;42435;53.292;6.000;2022-07-01T14:30:40;4.38;;;0.88;;
56537;SDS011;42435;53.292;6.000;2022-07-01T14:33:06;2.08;;;0.80;;
56537;SDS011;42435;53.292;6.000;2022-07-01T14:35:41;3.50;;;0.82;;
56537;SDS011;42435;53.292;6.000;2022-07-01T14:38:15;2.70;;;0.70;;
56537;SDS011;42435;53.292;6.000;2022-07-01T14:40:50;2.78;;;0.98;;
56537;SDS011;42435;53.292;6.000;2022-07-01T14:43:24;3.60;;;0.85;;
56537;SDS011;42435;53.292;6.000;2022-07-01T14:45:50;1.80;;;0.50;;
56537;SDS011;42435;53.292;6.000;2022-07-01T14:48:19;4.30;;;0.82;;
56537;SDS011;42435;53.292;6.000;2022-07-01T14:50:47;6.00;;;1.02;;
56537;SDS011;42435;53.292;6.000;2022-07-01T14:56:49;1.40;;;0.60;;
56537;SDS011;42435;53.292;6.000;2022-07-01T15:02:37;2.97;;;0.70;;
56537;SDS011;42435;53.292;6.000;2022-07-01T15:05:32;4.75;;;0.70;;
56537;SDS011;42435;53.292;6.000;2022-07-01T15:08:19;5.72;;;1.02;;
56537;SDS011;42435;53.292;6.000;2022-07-01T15:10:59;1.63;;;0.60;;
56537;SDS011;42435;53.292;6.000;2022-07-01T15:13:31;1.88;;;1.08;;
56537;SDS011;42435;53.292;6.000;2022-07-01T15:16:00;2.35;;;0.50;;
56537;SDS011;42435;53.292;6.000;2022-07-01T15:18:31;3.15;;;0.50;;
56537;SDS011;42435;53.292;6.000;2022-07-01T15:23:54;4.05;;;0.68;;
56537;SDS011;42435;53.292;6.000;2022-07-01T15:26:37;1.40;;;0.30;;
56537;SDS011;42435;53.292;6.000;2022-07-01T15:29:03;1.85;;;0.43;;
56537;SDS011;42435;53.292;6.000;2022-07-01T15:31:53;2.90;;;0.63;;
56537;SDS011;42435;53.292;6.000;2022-07-01T15:34:33;3.15;;;0.60;;
56537;SDS011;42435;53.292;6.000;2022-07-01T15:37:02;4.47;;;0.75;;
56537;SDS011;42435;53.292;6.000;2022-07-01T15:40:00;2.47;;;0.77;;
56537;SDS011;42435;53.292;6.000;2022-07-01T15:42:35;0.82;;;0.30;;
56537;SDS011;42435;53.292;6.000;2022-07-01T15:45:21;3.25;;;0.50;;